OIMC

Details ICAO OIMC
Name SARAKHS
Region Iran
Timezone Asia/Tehran (UTC+3.5)
Plans Departing 0
Arriving 3
Stats Elevation 945 ft / 288 m (AMSL)
Location 36.501178° 61.064901°
Runways 1
Magnetic Variation 4.328° E
Sunrise 2017-12-11 02:58:52 UTC / 2017-12-11 06:28:52 Local
Sunset 2017-12-11 12:41:53 UTC / 2017-12-11 16:11:53 Local
Advertisement - Login to hide

Runways

ID Width Length Bearing (true) Bearing (mag) Surface Threshold Offset Overrun Length
14 148 ft / 45 m 13,089 ft / 3,989 m 145.32° 140.99° Asphalt 0 ft / 0 m 185 ft / 56 m
32 148 ft / 45 m 13,089 ft / 3,989 m 325.34° 321.01° Asphalt 0 ft / 0 m 225 ft / 69 m

Map

Weather


0- 5 10 15 20 25 30 35+ Temperature / ° C

Clouds and Precipitation
Forecast for 2017-12-11 06:00 UTC. Updated an hour ago

Ground ~20,000 ft ~40,000 ft Winds

METAR

OIMC 110150Z 00000KT CAVOK M03/M09 Q1023

TAF

Not found
Warning: Do not use this data for real-world aviation or navigation. No guarantee of current accuracy is given.